Time;durP1;ratioP1;P1;durP2;ratioP2;P2;SDS_P1;SDS_P2;PMS_P1;PMS_P2;Temp;Humidity;BMP_temperature;BMP_pressure;BME280_temperature;BME280_humidity;BME280_pressure;Samples;Min_cycle;Max_cycle;Signal;HPM_P1;HPM_P2
2023/05/08 00:01:24;;;;;;;3.47;2.65;;;17.00;99.90;;;;;;5072531;28;20238;-62
2023/05/08 00:03:52;;;;;;;3.03;2.40;;;17.00;99.90;;;;;;5072377;28;20691;-62
2023/05/08 00:06:20;;;;;;;5.15;3.03;;;17.00;99.90;;;;;;5072625;28;20225;-62
2023/05/08 00:08:46;;;;;;;4.20;2.92;;;17.00;99.90;;;;;;5072620;28;20245;-63
2023/05/08 00:11:13;;;;;;;4.18;3.45;;;17.00;99.90;;;;;;5072170;28;20224;-61
2023/05/08 00:13:40;;;;;;;3.67;3.35;;;17.10;99.90;;;;;;5072268;28;20201;-62
2023/05/08 00:16:08;;;;;;;8.13;3.42;;;17.10;99.90;;;;;;5072224;28;20451;-63
2023/05/08 00:18:36;;;;;;;3.83;3.40;;;17.00;99.90;;;;;;5072380;28;20296;-62
2023/05/08 00:21:03;;;;;;;5.07;3.78;;;17.00;99.90;;;;;;5072422;28;20240;-63
2023/05/08 00:23:31;;;;;;;5.10;4.20;;;17.00;99.90;;;;;;5071849;28;20205;-62
2023/05/08 00:25:57;;;;;;;4.15;3.70;;;16.90;99.90;;;;;;5072081;28;20229;-62
2023/05/08 00:28:24;;;;;;;7.53;4.45;;;16.80;99.90;;;;;;5072118;28;20204;-62
2023/05/08 00:30:51;;;;;;;4.45;4.05;;;16.80;99.90;;;;;;5072497;28;20205;-63
2023/05/08 00:33:18;;;;;;;4.93;4.10;;;16.80;99.90;;;;;;5072258;28;20288;-62
2023/05/08 00:35:45;;;;;;;4.78;4.13;;;16.90;99.90;;;;;;5072351;28;20225;-63
2023/05/08 00:38:11;;;;;;;4.82;3.78;;;16.90;99.90;;;;;;5072082;28;20677;-61
2023/05/08 00:40:39;;;;;;;4.32;3.90;;;16.90;99.90;;;;;;5072085;28;20212;-63
2023/05/08 00:43:06;;;;;;;6.25;3.72;;;16.90;99.90;;;;;;5071832;28;20673;-63
2023/05/08 00:45:36;;;;;;;4.95;3.53;;;16.90;99.90;;;;;;5071942;28;20594;-62
2023/05/08 00:48:03;;;;;;;5.05;3.70;;;16.90;99.90;;;;;;5072041;28;20209;-62
2023/05/08 00:50:31;;;;;;;5.95;3.88;;;16.90;99.90;;;;;;5071418;28;20228;-62
2023/05/08 00:53:00;;;;;;;6.95;3.83;;;16.80;99.90;;;;;;5071981;28;20204;-63
2023/05/08 00:55:26;;;;;;;4.28;3.88;;;16.70;99.90;;;;;;5071403;28;20255;-63
2023/05/08 00:57:55;;;;;;;4.97;3.88;;;16.70;99.90;;;;;;5071743;28;20687;-63
2023/05/08 01:00:22;;;;;;;4.57;3.88;;;16.70;99.90;;;;;;5071989;28;20201;-63
2023/05/08 01:02:49;;;;;;;4.10;3.70;;;16.70;99.90;;;;;;5071858;28;20215;-63
2023/05/08 01:05:15;;;;;;;5.63;3.75;;;16.70;99.90;;;;;;5071749;28;20253;-63
2023/05/08 01:07:42;;;;;;;5.72;4.22;;;16.80;99.90;;;;;;5071794;28;20250;-62
2023/05/08 01:10:10;;;;;;;4.70;4.30;;;16.70;99.90;;;;;;5071758;28;20699;-62
2023/05/08 01:12:52;;;;;;;4.25;3.90;;;16.70;99.90;;;;;;5072041;28;20688;-61
2023/05/08 01:15:27;;;;;;;4.40;4.00;;;16.70;99.90;;;;;;5071572;28;20316;-61
2023/05/08 01:18:05;;;;;;;5.18;4.15;;;16.70;99.90;;;;;;5071730;28;20254;-61
2023/05/08 01:20:40;;;;;;;6.70;3.88;;;16.80;99.90;;;;;;5071810;28;20205;-62
2023/05/08 01:23:38;;;;;;;4.70;4.30;;;16.80;99.90;;;;;;5071986;28;20205;-62
2023/05/08 01:26:26;;;;;;;4.20;3.70;;;16.80;99.90;;;;;;5071773;28;20342;-63
2023/05/08 01:29:26;;;;;;;4.80;4.40;;;16.90;99.90;;;;;;5071708;28;20204;-63
2023/05/08 01:32:14;;;;;;;4.60;4.20;;;16.90;99.90;;;;;;5070051;28;20205;-62
2023/05/08 01:34:49;;;;;;;4.45;4.05;;;16.90;99.90;;;;;;5071511;28;20205;-63
2023/05/08 01:37:25;;;;;;;4.10;3.70;;;16.90;99.90;;;;;;5072030;28;20231;-63
2023/05/08 01:40:02;;;;;;;5.75;4.10;;;17.00;99.90;;;;;;5071745;28;20209;-63
2023/05/08 01:42:39;;;;;;;4.35;3.95;;;17.00;99.90;;;;;;5071789;28;20201;-62
2023/05/08 01:45:11;;;;;;;8.55;3.53;;;17.00;99.90;;;;;;5072045;28;20319;-61
2023/05/08 01:47:41;;;;;;;5.32;3.70;;;17.00;99.90;;;;;;5071986;28;20203;-59
2023/05/08 01:50:15;;;;;;;6.80;3.65;;;17.10;99.90;;;;;;5072154;28;20217;-62
2023/05/08 01:52:45;;;;;;;4.75;3.50;;;17.10;99.90;;;;;;5073247;28;20204;-61
2023/05/08 01:55:17;;;;;;;5.07;3.45;;;17.10;99.90;;;;;;5073128;28;20312;-59
2023/05/08 01:57:48;;;;;;;3.92;3.35;;;17.10;99.90;;;;;;5073275;28;20256;-60
2023/05/08 02:00:20;;;;;;;6.40;3.50;;;17.20;99.90;;;;;;5073508;28;20205;-59
2023/05/08 02:02:50;;;;;;;3.63;3.33;;;17.10;99.90;;;;;;5075943;28;20212;-60
2023/05/08 02:05:18;;;;;;;5.47;4.00;;;17.10;99.90;;;;;;5074895;28;20225;-60
2023/05/08 02:07:47;;;;;;;4.75;4.35;;;17.20;99.90;;;;;;5076648;28;20577;-60
2023/05/08 02:10:16;;;;;;;4.22;3.80;;;17.20;99.90;;;;;;5075289;28;20211;-63
2023/05/08 02:12:44;;;;;;;7.22;3.90;;;17.20;99.90;;;;;;5075055;28;20291;-60
2023/05/08 02:15:13;;;;;;;5.25;3.78;;;17.10;99.90;;;;;;5074345;28;20708;-60
2023/05/08 02:17:41;;;;;;;3.95;3.58;;;17.10;99.90;;;;;;5074598;28;20229;-60
2023/05/08 02:20:13;;;;;;;3.77;3.40;;;17.10;99.90;;;;;;5074696;28;20725;-60
2023/05/08 02:22:43;;;;;;;5.95;3.67;;;16.90;99.90;;;;;;5074494;28;20582;-60
2023/05/08 02:25:13;;;;;;;4.80;3.75;;;16.80;99.90;;;;;;5074292;28;20225;-60
2023/05/08 02:27:42;;;;;;;3.70;3.38;;;16.70;99.90;;;;;;5074711;28;20197;-59
2023/05/08 02:30:11;;;;;;;4.93;3.30;;;16.70;99.90;;;;;;5073998;28;20691;-62
2023/05/08 02:32:38;;;;;;;4.05;3.70;;;16.80;99.90;;;;;;5074286;28;20213;-59
2023/05/08 02:35:06;;;;;;;4.60;3.80;;;16.70;99.90;;;;;;5074605;28;20723;-59
2023/05/08 02:37:35;;;;;;;4.25;3.85;;;16.70;99.90;;;;;;5073945;28;20225;-59
2023/05/08 02:40:03;;;;;;;4.07;3.63;;;16.80;99.90;;;;;;5073961;28;20673;-59
2023/05/08 02:42:30;;;;;;;4.30;3.50;;;16.80;99.90;;;;;;5074361;28;20208;-59
2023/05/08 02:44:57;;;;;;;5.40;3.45;;;16.80;99.90;;;;;;5073685;28;20205;-60
2023/05/08 02:47:29;;;;;;;3.70;3.35;;;16.80;99.90;;;;;;5074504;28;20201;-60
2023/05/08 02:50:03;;;;;;;3.58;3.28;;;16.80;99.90;;;;;;5073921;28;20228;-60
2023/05/08 02:52:37;;;;;;;4.78;3.83;;;16.80;99.90;;;;;;5074207;28;20619;-60
2023/05/08 02:55:10;;;;;;;5.30;3.80;;;16.80;99.90;;;;;;5073910;28;20227;-60
2023/05/08 02:57:43;;;;;;;4.07;3.67;;;16.80;99.90;;;;;;5073808;28;20225;-60
2023/05/08 03:00:17;;;;;;;4.28;3.75;;;16.80;99.90;;;;;;5073735;28;20205;-59
2023/05/08 03:02:48;;;;;;;3.90;3.42;;;16.80;99.90;;;;;;5073723;28;20677;-60
2023/05/08 03:05:19;;;;;;;4.43;3.72;;;16.80;99.90;;;;;;5073551;28;20286;-60
2023/05/08 03:07:50;;;;;;;3.75;3.40;;;16.80;99.90;;;;;;5073809;28;20209;-60
2023/05/08 03:10:19;;;;;;;6.55;3.97;;;16.70;99.90;;;;;;5073591;28;20239;-60
2023/05/08 03:12:49;;;;;;;3.92;3.53;;;16.70;99.90;;;;;;5072819;28;20207;-61
2023/05/08 03:15:22;;;;;;;4.65;3.95;;;16.80;99.90;;;;;;5073164;28;20704;-60
2023/05/08 03:17:55;;;;;;;4.30;3.90;;;16.80;99.90;;;;;;5073494;28;20225;-59
2023/05/08 03:20:24;;;;;;;5.93;4.07;;;16.80;99.90;;;;;;5073553;28;20585;-60
2023/05/08 03:22:55;;;;;;;5.40;4.90;;;16.80;99.90;;;;;;5073273;28;20295;-59
2023/05/08 03:25:23;;;;;;;5.15;4.20;;;16.80;99.90;;;;;;5072896;28;20229;-60
2023/05/08 03:27:51;;;;;;;4.47;4.07;;;16.80;99.90;;;;;;5073371;28;20200;-61
2023/05/08 03:30:20;;;;;;;6.95;4.60;;;16.80;99.90;;;;;;5072906;28;20205;-61
2023/05/08 03:32:49;;;;;;;4.75;4.35;;;16.80;99.90;;;;;;5072983;28;20205;-60
2023/05/08 03:35:17;;;;;;;6.10;4.60;;;16.80;99.90;;;;;;5072875;28;20232;-60
2023/05/08 03:37:44;;;;;;;4.90;4.40;;;16.80;99.90;;;;;;5072790;28;20720;-60
2023/05/08 03:40:13;;;;;;;5.50;4.85;;;16.90;99.90;;;;;;5073077;28;20209;-60
2023/05/08 03:42:40;;;;;;;4.88;4.47;;;16.90;99.90;;;;;;5073018;28;20234;-60
2023/05/08 03:45:10;;;;;;;5.55;5.00;;;17.00;99.90;;;;;;5072549;28;20328;-61
2023/05/08 03:47:37;;;;;;;4.82;4.35;;;17.00;99.90;;;;;;5072835;28;20208;-60
2023/05/08 03:50:06;;;;;;;4.40;4.00;;;16.90;99.90;;;;;;5072494;28;20763;-60
2023/05/08 03:52:33;;;;;;;5.68;4.15;;;16.90;99.90;;;;;;5072353;28;20597;-61
2023/05/08 03:55:00;;;;;;;6.30;5.70;;;16.90;99.90;;;;;;5072472;28;20209;-60
2023/05/08 03:57:35;;;;;;;5.25;4.75;;;16.90;99.90;;;;;;5072595;28;20240;-62
2023/05/08 04:00:08;;;;;;;6.22;4.90;;;16.90;99.90;;;;;;5072640;28;20205;-60
2023/05/08 04:02:43;;;;;;;4.43;3.97;;;16.90;99.90;;;;;;5072628;28;20232;-61
2023/05/08 04:05:17;;;;;;;4.53;3.90;;;16.90;99.90;;;;;;5072063;28;20282;-60
2023/05/08 04:07:52;;;;;;;4.80;4.03;;;16.80;99.90;;;;;;5072445;28;20266;-61
2023/05/08 04:10:27;;;;;;;5.18;4.53;;;16.80;99.90;;;;;;5072563;28;20254;-61
2023/05/08 04:13:03;;;;;;;5.15;4.22;;;16.70;99.90;;;;;;5072569;28;20227;-61
2023/05/08 04:15:32;;;;;;;4.72;4.10;;;16.70;99.90;;;;;;5071950;28;20340;-61
2023/05/08 04:18:04;;;;;;;6.00;4.17;;;16.70;99.90;;;;;;5072326;28;20274;-62
2023/05/08 04:20:32;;;;;;;3.95;3.38;;;16.60;99.90;;;;;;5072298;28;20201;-61
2023/05/08 04:22:59;;;;;;;4.18;3.78;;;16.50;99.90;;;;;;5072144;28;20227;-60
2023/05/08 04:25:27;;;;;;;10.05;4.60;;;16.40;99.90;;;;;;5071164;28;20257;-60
2023/05/08 04:27:57;;;;;;;4.18;3.78;;;16.30;99.90;;;;;;5071904;28;20547;-60
2023/05/08 04:30:24;;;;;;;3.97;3.60;;;16.40;99.90;;;;;;5072048;28;20580;-60
2023/05/08 04:32:52;;;;;;;5.07;4.07;;;16.30;99.90;;;;;;5072124;28;20201;-60
2023/05/08 04:35:18;;;;;;;5.27;4.30;;;16.40;99.90;;;;;;5071923;28;20286;-60
2023/05/08 04:37:46;;;;;;;4.35;3.95;;;16.50;99.90;;;;;;5072044;28;20225;-58
2023/05/08 04:40:13;;;;;;;5.00;4.40;;;16.60;99.90;;;;;;5071818;28;20201;-60
2023/05/08 04:42:41;;;;;;;7.55;4.78;;;16.60;99.90;;;;;;5072274;28;20201;-62
2023/05/08 04:45:10;;;;;;;4.75;3.97;;;16.70;99.90;;;;;;5071639;28;20264;-59
2023/05/08 04:47:37;;;;;;;4.80;4.22;;;16.80;99.90;;;;;;5071862;28;20668;-61
2023/05/08 04:50:04;;;;;;;5.00;4.13;;;16.90;99.90;;;;;;5072266;28;20232;-63
2023/05/08 04:52:31;;;;;;;5.13;3.88;;;16.90;99.90;;;;;;5071939;28;20243;-61
2023/05/08 04:54:58;;;;;;;3.80;3.50;;;17.00;99.90;;;;;;5071520;28;20209;-60
2023/05/08 04:57:24;;;;;;;6.82;3.90;;;16.90;99.90;;;;;;5071996;28;20228;-60
2023/05/08 04:59:51;;;;;;;4.13;3.72;;;16.90;99.90;;;;;;5071982;28;20208;-59
2023/05/08 05:02:19;;;;;;;4.80;4.30;;;16.80;99.90;;;;;;5072111;28;20209;-59
2023/05/08 05:04:46;;;;;;;4.20;3.80;;;16.80;99.90;;;;;;5071384;28;20266;-60
2023/05/08 05:07:13;;;;;;;5.05;4.55;;;16.80;99.90;;;;;;5071608;28;20683;-61
2023/05/08 05:09:39;;;;;;;5.40;4.10;;;16.80;99.90;;;;;;5071589;28;20212;-61
2023/05/08 05:12:07;;;;;;;4.40;4.00;;;16.90;99.90;;;;;;5071996;28;20201;-60
2023/05/08 05:14:33;;;;;;;5.00;4.50;;;16.90;99.90;;;;;;5070459;28;20220;-61
2023/05/08 05:17:00;;;;;;;5.30;4.22;;;16.80;99.90;;;;;;5071575;28;20294;-62
2023/05/08 05:19:28;;;;;;;6.40;4.30;;;16.80;99.90;;;;;;5071385;28;20204;-61
2023/05/08 05:21:55;;;;;;;6.35;4.43;;;16.70;99.90;;;;;;5071292;28;20684;-61
2023/05/08 05:24:22;;;;;;;5.45;4.95;;;16.60;99.90;;;;;;5071540;28;20209;-62
2023/05/08 05:26:48;;;;;;;4.65;4.18;;;16.70;99.90;;;;;;5071634;28;20229;-62
2023/05/08 05:29:15;;;;;;;5.32;4.18;;;16.70;99.90;;;;;;5071650;28;20217;-62
2023/05/08 05:31:42;;;;;;;4.72;4.22;;;16.70;99.90;;;;;;5071943;28;20209;-61
2023/05/08 05:34:08;;;;;;;4.15;3.75;;;16.70;99.90;;;;;;5071481;28;20288;-61
2023/05/08 05:36:37;;;;;;;4.43;4.03;;;16.80;99.90;;;;;;5073708;28;20224;-61
2023/05/08 05:39:04;;;;;;;4.68;3.97;;;16.90;99.90;;;;;;5076293;28;20221;-62
2023/05/08 05:41:30;;;;;;;6.00;4.15;;;16.90;99.90;;;;;;5076501;28;20208;-61
2023/05/08 05:43:57;;;;;;;4.97;4.20;;;17.00;99.90;;;;;;5076409;28;20266;-64
2023/05/08 05:46:26;;;;;;;5.43;4.03;;;17.00;99.90;;;;;;5075612;28;20290;-61
2023/05/08 05:48:53;;;;;;;4.60;4.20;;;17.00;99.90;;;;;;5075207;28;20201;-64
2023/05/08 05:51:20;;;;;;;3.88;3.50;;;17.00;99.90;;;;;;5074835;28;20712;-59
2023/05/08 05:53:48;;;;;;;4.85;3.42;;;17.00;99.90;;;;;;5074445;28;20213;-62
2023/05/08 05:56:14;;;;;;;4.38;3.90;;;17.00;99.90;;;;;;5074668;28;20625;-60
2023/05/08 05:58:43;;;;;;;4.40;4.00;;;17.10;99.90;;;;;;5074728;28;20310;-61
2023/05/08 06:01:10;;;;;;;4.88;4.03;;;17.10;99.90;;;;;;5074886;28;20244;-62
2023/05/08 06:03:37;;;;;;;6.63;4.22;;;17.10;99.90;;;;;;5074968;28;20212;-60
2023/05/08 06:06:04;;;;;;;4.70;4.30;;;17.20;99.90;;;;;;5074651;28;20716;-62
2023/05/08 06:08:31;;;;;;;4.78;4.22;;;17.20;99.90;;;;;;5074489;28;20241;-61
2023/05/08 06:10:59;;;;;;;5.10;4.68;;;17.40;99.90;;;;;;5074400;28;20571;-61
2023/05/08 06:13:25;;;;;;;5.13;4.60;;;17.40;99.90;;;;;;5074747;28;20204;-61
2023/05/08 06:15:55;;;;;;;5.15;4.70;;;17.50;99.90;;;;;;5074254;28;20224;-62
2023/05/08 06:18:22;;;;;;;6.03;4.50;;;17.60;99.90;;;;;;5074130;28;20311;-63
2023/05/08 06:20:49;;;;;;;5.07;4.60;;;17.70;99.90;;;;;;5074545;28;20212;-61
2023/05/08 06:23:15;;;;;;;6.68;5.32;;;17.90;99.90;;;;;;5074590;28;20251;-60
2023/05/08 06:25:42;;;;;;;5.82;5.18;;;17.90;99.90;;;;;;5074018;28;20305;-63
2023/05/08 06:28:10;;;;;;;7.25;4.97;;;18.00;99.90;;;;;;5074390;28;20205;-61
2023/05/08 06:30:37;;;;;;;5.40;4.90;;;18.00;99.90;;;;;;5074284;28;20271;-63
2023/05/08 06:33:04;;;;;;;7.03;4.82;;;18.00;99.90;;;;;;5074091;28;20250;-60
2023/05/08 06:35:30;;;;;;;5.70;5.20;;;18.00;99.90;;;;;;5074094;28;20229;-64
2023/05/08 06:37:57;;;;;;;5.47;4.97;;;18.10;99.90;;;;;;5074312;28;20220;-61
2023/05/08 06:40:24;;;;;;;5.68;4.78;;;18.30;99.90;;;;;;5074107;28;20205;-60
2023/05/08 06:42:50;;;;;;;5.65;5.13;;;18.40;99.90;;;;;;5073903;28;20251;-64
2023/05/08 06:45:19;;;;;;;5.63;5.10;;;18.50;99.90;;;;;;5073154;28;20229;-62
2023/05/08 06:47:45;;;;;;;5.10;4.70;;;18.60;99.90;;;;;;5072856;28;20203;-62
2023/05/08 06:50:12;;;;;;;5.05;4.35;;;18.70;99.90;;;;;;5073841;28;20695;-62
2023/05/08 06:52:39;;;;;;;4.93;4.43;;;18.80;99.90;;;;;;5073961;28;20267;-61
2023/05/08 06:55:06;;;;;;;5.10;4.60;;;19.10;99.90;;;;;;5073396;28;20229;-62
2023/05/08 06:57:33;;;;;;;5.28;4.75;;;19.40;99.90;;;;;;5073766;28;20703;-64
2023/05/08 07:00:00;;;;;;;5.63;5.00;;;19.60;99.90;;;;;;5074622;28;20591;-62
2023/05/08 07:02:28;;;;;;;5.43;4.90;;;19.80;99.90;;;;;;5074902;28;20209;-62
2023/05/08 07:04:54;;;;;;;5.18;4.65;;;19.80;99.90;;;;;;5073971;28;20561;-62
2023/05/08 07:07:21;;;;;;;5.97;5.38;;;19.90;99.90;;;;;;5074141;28;20209;-61
2023/05/08 07:09:48;;;;;;;5.40;4.90;;;20.20;99.90;;;;;;5073996;28;20212;-61
2023/05/08 07:12:15;;;;;;;5.72;5.22;;;20.40;99.90;;;;;;5073493;28;20254;-62
2023/05/08 07:14:42;;;;;;;5.95;5.35;;;20.40;99.90;;;;;;5073036;28;20673;-62
2023/05/08 07:17:08;;;;;;;7.65;5.03;;;20.40;99.90;;;;;;5070574;28;20209;-62
2023/05/08 07:19:37;;;;;;;7.35;5.43;;;20.10;99.90;;;;;;5070949;28;20758;-64
2023/05/08 07:22:04;;;;;;;6.18;5.57;;;20.00;99.90;;;;;;5072000;28;20209;-66
2023/05/08 07:24:31;;;;;;;6.90;5.60;;;19.90;99.90;;;;;;5072444;28;20212;-65
2023/05/08 07:26:58;;;;;;;6.40;5.80;;;19.80;99.90;;;;;;5072359;28;20225;-64
2023/05/08 07:29:25;;;;;;;7.32;5.93;;;19.60;99.90;;;;;;5072536;28;20573;-64
2023/05/08 07:31:52;;;;;;;6.53;5.85;;;19.50;99.90;;;;;;5072235;28;20208;-64
2023/05/08 07:34:18;;;;;;;7.72;6.07;;;19.40;99.90;;;;;;5071593;28;20201;-65
2023/05/08 07:36:46;;;;;;;6.90;6.20;;;19.30;99.90;;;;;;5072118;28;20229;-64
2023/05/08 07:39:13;;;;;;;8.18;5.95;;;19.10;99.90;;;;;;5071337;28;20235;-65
2023/05/08 07:41:40;;;;;;;6.05;5.45;;;19.00;99.90;;;;;;5071742;28;20375;-63
2023/05/08 07:44:07;;;;;;;6.53;5.82;;;19.20;99.90;;;;;;5071383;28;20615;-67
2023/05/08 07:46:34;;;;;;;7.18;6.35;;;19.30;99.90;;;;;;5106664;22;20278;-56
2023/05/08 07:49:00;;;;;;;7.00;5.95;;;19.30;99.90;;;;;;5092577;28;20566;-58
2023/05/08 07:51:27;;;;;;;7.10;6.40;;;19.30;99.90;;;;;;5092795;28;20196;-56
2023/05/08 07:53:55;;;;;;;6.68;5.97;;;19.40;99.90;;;;;;5092132;28;20258;-56
2023/05/08 07:56:22;;;;;;;7.95;6.32;;;19.60;99.90;;;;;;5092010;28;20236;-56
2023/05/08 07:58:49;;;;;;;6.82;5.80;;;19.80;99.90;;;;;;5091836;28;20233;-59
2023/05/08 08:01:16;;;;;;;6.60;6.00;;;20.10;99.90;;;;;;5092334;28;20215;-57
2023/05/08 08:03:43;;;;;;;6.85;6.15;;;20.20;99.90;;;;;;5091862;28;20212;-58
2023/05/08 08:06:10;;;;;;;7.30;5.78;;;20.40;99.90;;;;;;5092014;28;20228;-57
2023/05/08 08:08:37;;;;;;;6.78;5.93;;;20.60;99.90;;;;;;5092220;28;20211;-57
2023/05/08 08:11:06;;;;;;;6.72;6.00;;;20.70;99.90;;;;;;5092441;28;20562;-59
2023/05/08 08:13:32;;;;;;;6.88;6.25;;;20.70;99.90;;;;;;5092246;28;20691;-57
2023/05/08 08:16:02;;;;;;;6.53;5.90;;;20.60;99.90;;;;;;5092358;28;20648;-58
2023/05/08 08:18:29;;;;;;;8.75;6.32;;;20.50;99.90;;;;;;5080120;28;20611;-61
2023/05/08 08:20:56;;;;;;;6.82;6.13;;;20.60;99.90;;;;;;5071922;28;20204;-58
2023/05/08 08:23:23;;;;;;;8.90;6.05;;;20.80;99.90;;;;;;5071991;28;20204;-58
2023/05/08 08:25:52;;;;;;;7.13;6.43;;;21.00;99.90;;;;;;5071458;28;20224;-58
2023/05/08 08:28:20;;;;;;;6.72;6.13;;;21.20;99.90;;;;;;5071642;28;20208;-58
2023/05/08 08:30:47;;;;;;;6.93;6.07;;;21.30;99.90;;;;;;5071631;28;20216;-57
2023/05/08 08:33:13;;;;;;;7.10;6.40;;;21.30;99.90;;;;;;5071686;28;20205;-57
2023/05/08 08:35:40;;;;;;;8.70;6.57;;;21.30;99.90;;;;;;5070578;28;20236;-59
2023/05/08 08:38:07;;;;;;;7.22;6.53;;;21.20;99.90;;;;;;5072002;28;20246;-58
2023/05/08 08:40:38;;;;;;;10.35;7.18;;;21.10;99.90;;;;;;5072786;28;20216;-59
2023/05/08 08:43:04;;;;;;;8.75;6.65;;;21.00;99.90;;;;;;5071963;28;20569;-58
2023/05/08 08:45:33;;;;;;;8.93;6.85;;;20.90;99.90;;;;;;5071664;28;20290;-57
2023/05/08 08:48:02;;;;;;;7.22;6.35;;;20.80;99.90;;;;;;5071097;28;20688;-56
2023/05/08 08:50:32;;;;;;;7.25;6.50;;;20.70;99.90;;;;;;5071104;28;20216;-61
2023/05/08 08:53:04;;;;;;;8.40;6.78;;;20.60;99.90;;;;;;5071526;28;20297;-58
2023/05/08 08:55:33;;;;;;;7.30;6.60;;;20.60;99.90;;;;;;5071016;28;20225;-59
2023/05/08 08:58:11;;;;;;;7.40;6.70;;;20.70;99.90;;;;;;5070954;28;20208;-57
2023/05/08 09:00:41;;;;;;;7.88;7.07;;;20.80;99.90;;;;;;5071330;28;20438;-63
2023/05/08 09:03:08;;;;;;;7.72;6.95;;;21.10;99.90;;;;;;5072293;28;20291;-57
2023/05/08 09:05:35;;;;;;;6.60;6.00;;;21.30;99.90;;;;;;5071872;28;20240;-57
2023/05/08 09:08:02;;;;;;;7.78;6.38;;;21.50;99.90;;;;;;5072177;28;20204;-57
2023/05/08 09:10:29;;;;;;;7.68;6.88;;;21.70;99.90;;;;;;5072493;28;20212;-58
2023/05/08 09:12:56;;;;;;;7.40;6.70;;;21.70;99.90;;;;;;5076423;28;20205;-58
2023/05/08 09:15:23;;;;;;;7.43;6.63;;;21.70;99.90;;;;;;5075629;28;20328;-60
2023/05/08 09:17:51;;;;;;;7.03;6.38;;;21.80;99.90;;;;;;5076223;28;20603;-58
2023/05/08 09:20:18;;;;;;;6.47;5.88;;;21.70;99.90;;;;;;5076121;28;20233;-57
2023/05/08 09:22:46;;;;;;;8.43;6.57;;;21.60;99.90;;;;;;5076242;28;20213;-58
2023/05/08 09:25:13;;;;;;;7.35;6.65;;;21.50;99.90;;;;;;5075968;28;20665;-57
2023/05/08 09:27:39;;;;;;;7.82;7.13;;;21.60;99.90;;;;;;5076125;28;20207;-58
2023/05/08 09:30:09;;;;;;;6.93;6.22;;;21.70;99.90;;;;;;5075830;28;20576;-58
2023/05/08 09:32:37;;;;;;;7.40;6.70;;;21.80;99.90;;;;;;5076063;28;20638;-58
2023/05/08 09:35:07;;;;;;;7.32;6.63;;;22.00;99.90;;;;;;5075870;28;20212;-57
2023/05/08 09:37:37;;;;;;;16.52;14.77;;;22.00;99.90;;;;;;5076071;28;20205;-58
2023/05/08 09:40:18;;;;;;;7.70;7.00;;;22.10;99.90;;;;;;5075939;28;20659;-58
2023/05/08 09:42:45;;;;;;;7.50;6.80;;;22.10;99.90;;;;;;5075873;28;20211;-58
2023/05/08 09:45:25;;;;;;;9.02;6.43;;;22.00;99.90;;;;;;5075454;28;20212;-59
2023/05/08 09:47:51;;;;;;;7.75;6.97;;;21.90;99.90;;;;;;5075845;28;20209;-60
2023/05/08 09:50:19;;;;;;;7.88;6.75;;;21.70;99.90;;;;;;5076085;28;20201;-58
2023/05/08 09:52:48;;;;;;;7.43;6.72;;;21.50;99.90;;;;;;5075986;28;20627;-58
2023/05/08 09:55:15;;;;;;;7.10;6.40;;;21.50;99.90;;;;;;5075573;28;20253;-59
2023/05/08 09:57:53;;;;;;;8.02;6.68;;;21.40;99.90;;;;;;5076031;28;20205;-58
2023/05/08 10:00:21;;;;;;;7.25;6.55;;;21.60;99.90;;;;;;5076004;28;20224;-58
2023/05/08 10:02:55;;;;;;;6.95;6.22;;;21.60;99.90;;;;;;5075466;28;20224;-60
2023/05/08 10:05:25;;;;;;;6.43;5.82;;;21.80;99.90;;;;;;5075078;28;20315;-58
2023/05/08 10:07:52;;;;;;;6.63;5.93;;;21.80;99.90;;;;;;5075867;28;20243;-59
2023/05/08 10:10:25;;;;;;;8.55;6.88;;;21.60;99.90;;;;;;5075404;28;20208;-58
2023/05/08 10:12:53;;;;;;;7.88;6.55;;;21.70;99.90;;;;;;5075289;28;20208;-58
2023/05/08 10:15:21;;;;;;;8.85;6.65;;;21.80;99.90;;;;;;5074995;28;20235;-58
2023/05/08 10:17:53;;;;;;;6.63;6.03;;;22.10;99.90;;;;;;5074978;28;20201;-60
2023/05/08 10:20:21;;;;;;;6.85;6.18;;;22.30;99.90;;;;;;5075704;28;20225;-61
2023/05/08 10:22:49;;;;;;;6.57;5.97;;;22.50;99.90;;;;;;5074149;28;20227;-57
2023/05/08 10:25:17;;;;;;;7.03;6.32;;;22.50;99.90;;;;;;5075082;28;20211;-57
2023/05/08 10:27:51;;;;;;;7.13;6.43;;;22.50;99.90;;;;;;5074906;28;20212;-57
2023/05/08 10:30:23;;;;;;;9.75;6.88;;;22.60;99.90;;;;;;5074808;28;20200;-57
2023/05/08 10:32:53;;;;;;;7.45;6.75;;;22.70;99.90;;;;;;5074925;28;20201;-57
2023/05/08 10:35:22;;;;;;;7.30;6.60;;;22.70;99.90;;;;;;5074379;28;20278;-57
2023/05/08 10:37:50;;;;;;;7.43;6.72;;;22.30;99.90;;;;;;5074507;28;20221;-57
2023/05/08 10:40:20;;;;;;;7.88;7.03;;;22.00;99.90;;;;;;5074358;28;20704;-57
2023/05/08 10:42:47;;;;;;;7.40;6.35;;;21.70;99.90;;;;;;5074095;28;20664;-57
2023/05/08 10:45:14;;;;;;;8.75;6.78;;;21.60;99.90;;;;;;5074395;28;20722;-57
2023/05/08 10:47:50;;;;;;;7.70;6.90;;;21.50;99.90;;;;;;5074503;28;20209;-59
2023/05/08 10:50:33;;;;;;;7.55;6.82;;;21.30;99.90;;;;;;5074528;28;20338;-59
2023/05/08 10:53:07;;;;;;;8.10;7.30;;;21.10;99.90;;;;;;5074350;28;20573;-58
2023/05/08 10:55:37;;;;;;;8.05;7.22;;;21.10;99.90;;;;;;5074566;28;20254;-58
2023/05/08 10:58:13;;;;;;;9.70;7.68;;;21.20;99.90;;;;;;5074492;28;20201;-57
2023/05/08 11:01:12;;;;;;;9.50;7.13;;;21.20;99.90;;;;;;5074168;28;20791;-57
2023/05/08 11:03:40;;;;;;;8.10;7.30;;;21.20;99.90;;;;;;5074103;28;20204;-58
2023/05/08 11:06:07;;;;;;;8.38;7.63;;;21.10;99.90;;;;;;5074186;28;20265;-58
2023/05/08 11:08:46;;;;;;;8.88;7.63;;;20.90;99.90;;;;;;5073835;28;20204;-58
2023/05/08 11:11:23;;;;;;;8.57;7.78;;;20.70;99.90;;;;;;5073962;28;20643;-58
2023/05/08 11:13:54;;;;;;;8.80;7.97;;;20.50;99.90;;;;;;5074649;28;20204;-58
2023/05/08 11:16:55;;;;;;;9.05;7.90;;;20.60;99.90;;;;;;5073838;28;20747;-56
2023/05/08 11:19:23;;;;;;;9.05;8.13;;;20.60;99.90;;;;;;5074210;28;20224;-57
2023/05/08 11:22:13;;;;;;;9.07;8.23;;;20.60;99.90;;;;;;5074277;28;20204;-58
2023/05/08 11:24:47;;;;;;;9.50;8.05;;;20.80;99.90;;;;;;5073980;28;20251;-57
2023/05/08 11:27:14;;;;;;;10.18;7.85;;;21.20;99.90;;;;;;5073799;28;20227;-58
2023/05/08 11:29:41;;;;;;;8.32;7.53;;;21.70;99.90;;;;;;5074149;28;20684;-57
2023/05/08 11:32:11;;;;;;;8.63;7.80;;;21.70;99.90;;;;;;5074900;28;20695;-60
2023/05/08 11:34:48;;;;;;;8.48;7.68;;;21.40;99.90;;;;;;5073503;28;20270;-59
2023/05/08 11:37:19;;;;;;;10.75;9.35;;;21.30;99.90;;;;;;5074479;28;20232;-57
2023/05/08 11:39:48;;;;;;;8.98;8.18;;;21.40;99.90;;;;;;5074107;28;20229;-59
2023/05/08 11:42:33;;;;;;;9.82;8.82;;;21.50;99.90;;;;;;5073976;28;20209;-58
2023/05/08 11:45:04;;;;;;;9.13;7.90;;;21.70;99.90;;;;;;5073944;28;20699;-57
2023/05/08 11:47:37;;;;;;;10.68;8.20;;;21.70;99.90;;;;;;5073873;28;20625;-57
2023/05/08 11:50:05;;;;;;;9.38;8.27;;;21.50;99.90;;;;;;5073981;28;20209;-57
2023/05/08 11:52:33;;;;;;;9.75;8.75;;;21.40;99.90;;;;;;5073567;28;20205;-58
2023/05/08 11:55:04;;;;;;;9.05;8.10;;;21.10;99.90;;;;;;5073875;28;20205;-57
2023/05/08 11:57:32;;;;;;;9.88;8.82;;;21.00;99.90;;;;;;5073524;28;20216;-59
2023/05/08 11:59:58;;;;;;;9.23;8.25;;;20.90;99.90;;;;;;5073568;28;20682;-58
2023/05/08 12:02:36;;;;;;;8.70;7.90;;;20.70;99.90;;;;;;5073647;28;20216;-57
2023/05/08 12:05:03;;;;;;;9.00;8.02;;;20.60;99.90;;;;;;5073299;28;20208;-58
2023/05/08 12:07:30;;;;;;;8.73;7.82;;;20.60;99.90;;;;;;5073505;28;20692;-58
2023/05/08 12:09:57;;;;;;;10.70;8.40;;;20.70;99.90;;;;;;5073878;28;20326;-58
2023/05/08 12:12:36;;;;;;;8.32;7.63;;;20.90;99.90;;;;;;5073193;28;20672;-58
2023/05/08 12:15:06;;;;;;;9.00;7.57;;;21.20;99.90;;;;;;5073104;28;20243;-59
2023/05/08 12:17:33;;;;;;;8.95;8.05;;;21.50;99.90;;;;;;5073778;28;20215;-60
2023/05/08 12:20:11;;;;;;;9.90;7.53;;;21.70;99.90;;;;;;5073322;28;20216;-57
2023/05/08 12:22:38;;;;;;;8.38;7.57;;;22.00;99.90;;;;;;5073212;28;20211;-59
2023/05/08 12:25:07;;;;;;;7.85;7.15;;;22.20;99.90;;;;;;5073244;28;20204;-59
2023/05/08 12:27:36;;;;;;;8.38;7.57;;;22.30;99.90;;;;;;5072943;28;20698;-58
2023/05/08 12:30:07;;;;;;;8.35;6.88;;;22.40;99.90;;;;;;5073295;28;20295;-58
2023/05/08 12:32:36;;;;;;;7.97;7.18;;;22.40;99.90;;;;;;5073459;28;20204;-58
2023/05/08 12:35:03;;;;;;;7.93;7.13;;;22.10;99.90;;;;;;5072974;28;20211;-57
2023/05/08 12:37:29;;;;;;;8.57;7.28;;;21.80;99.90;;;;;;5072461;28;20205;-56
2023/05/08 12:39:56;;;;;;;8.38;7.57;;;21.70;99.90;;;;;;5072260;28;20229;-57
2023/05/08 12:42:40;;;;;;;8.07;7.18;;;21.80;99.90;;;;;;5072461;28;20215;-56
2023/05/08 12:45:16;;;;;;;9.18;6.18;;;22.00;99.90;;;;;;5071522;28;20205;-56
2023/05/08 12:47:45;;;;;;;7.05;6.15;;;22.30;99.90;;;;;;5072444;28;20208;-57
2023/05/08 12:50:15;;;;;;;6.93;6.22;;;22.70;99.90;;;;;;5072378;28;20212;-57
2023/05/08 12:52:41;;;;;;;6.88;6.18;;;23.00;99.90;;;;;;5072348;28;20216;-56
2023/05/08 12:55:21;;;;;;;7.05;6.35;;;23.30;99.90;;;;;;5071674;28;20208;-57
2023/05/08 12:57:48;;;;;;;6.82;6.22;;;23.40;99.90;;;;;;5072198;28;20280;-57